Wetaskiwin, Canada
Current Conditions -  °F | °C
As of 5:00 PM on Monday 24 Nov 2014 (Local Time) from CYEG Reporting Station
Overcast Overcast  
Wind Chill: 22°   Ceiling: 20000
Heat Index: 30°   Visibility: 15mi
Dew Point: 23°   Wind: 9mph
Humidity: 75%   Direction: 160°SSE
Pressure: 29.8"   Gusts: NA
Location:  52.97°N, 113.38°W
Report Text: CYEG 250000Z 16008KT 15SM SCT140 OVC200 M01/M05 A2980 RMK AC4CS4 PRESFR SLP125
Loading
Personal Weather Stations






























Interactive Weather Map New forecast layout! Learn more

10-Day Weather Forecast

Advertisements
Track Severe Weather on mobile